Amalia, New Mexico
Current Conditions -  °F | °C
As of 4:15 PM on Saturday 25 Oct 2014 (Local Time) from KSKX Reporting Station
Clear Clear  
Wind Chill: 73°   Ceiling: Unl
Heat Index: 73°   Visibility: 10mi
Dew Point: 21°   Wind: 12mph
Humidity: 14%   Direction: 210°SSW
Pressure: 30.27"   Gusts: NA
Location:  36.94°N, 105.45°W
Report Text: KSKX 252215Z AUTO 21010KT 10SM CLR 23/M06 A3027 RMK AO1
Loading
Personal Weather Stations






























Interactive Weather Map New forecast layout! Learn more

10-Day Weather Forecast

Advertisements
Track Severe Weather on mobile